FZWA

Mbuji Mayi Airport

Mbuji Mayi, Congo, Democratic Republic of
METAR FZWA 151500Z 34006KT 9999 FEW028 32/22 Q1012 NOSIG
Observed Flight Rules
Feb-15 @ 15:00 UTC (4 hours ago) Visual Flight Rules
Wind Visibility Clouds
340° at 6 knots 10,000+ meters
  • Few at 2,800' AGL
Temperatures Readings
Current 32°C / 90°F
Dewpoint 22°C / 72°F
Humidity 55%
Altimeter 29.88" Hg
Pressure 1011.92 hPa
Elevation 677
METAR FZWA 151500Z 34006KT 9999 FEW028 32/22 Q1012 NOSIG
Observed Flight Rules
Feb-15 @ 15:00 UTC
(4 hours ago)
VFR
Wind Visibility
340° at 6 knots 10,000+ meters
Clouds
  • Few at 2,800' AGL
Temperature Dewpoint
32°C / 90°F 22°C / 72°F
Humidity Altimeter Pressure
55% 29.88" Hg 1011.92 hPa